Time;durP1;ratioP1;P1;durP2;ratioP2;P2;SDS_P1;SDS_P2;PMS_P1;PMS_P2;Temp;Humidity;BMP_temperature;BMP_pressure;BME280_temperature;BME280_humidity;BME280_pressure;Samples;Min_cycle;Max_cycle;Signal;HPM_P1;HPM_P2
2021/09/01 00:00:34;;;;;;;;;;;;;;;16.54;71.84;102809.41;5076584;28;19924;-36
2021/09/01 00:02:59;;;;;;;;;;;;;;;16.53;72.14;102811.31;5076592;28;19956;-36
2021/09/01 00:05:24;;;;;;;;;;;;;;;16.53;71.87;102822.25;5075942;28;19908;-35
2021/09/01 00:07:49;;;;;;;;;;;;;;;16.54;72.29;102828.53;5076675;28;19909;-35
2021/09/01 00:10:15;;;;;;;;;;;;;;;16.53;71.91;102829.59;5075733;28;19913;-35
2021/09/01 00:12:42;;;;;;;;;;;;;;;16.50;72.54;102822.72;5076670;28;19909;-36
2021/09/01 00:15:08;;;;;;;;;;;;;;;16.45;72.46;102820.63;5075892;28;19961;-35
2021/09/01 00:17:35;;;;;;;;;;;;;;;16.45;72.36;102822.53;5075681;28;19908;-36
2021/09/01 00:20:00;;;;;;;;;;;;;;;16.47;72.56;102821.25;5075873;28;20332;-35
2021/09/01 00:22:25;;;;;;;;;;;;;;;16.49;72.21;102823.75;5076953;28;19955;-36
2021/09/01 00:24:50;;;;;;;;;;;;;;;16.48;72.50;102814.72;5076301;28;19915;-35
2021/09/01 00:27:16;;;;;;;;;;;;;;;16.50;72.18;102822.72;5075922;28;19908;-36
2021/09/01 00:29:41;;;;;;;;;;;;;;;16.48;72.30;102814.72;5075650;28;19908;-36
2021/09/01 00:32:06;;;;;;;;;;;;;;;16.50;72.21;102821.88;5076305;28;19908;-35
2021/09/01 00:34:32;;;;;;;;;;;;;;;16.48;72.35;102811.16;5075565;28;19909;-35
2021/09/01 00:36:57;;;;;;;;;;;;;;;16.50;72.55;102819.97;5075640;28;20272;-35
2021/09/01 00:39:22;;;;;;;;;;;;;;;16.49;72.59;102812.81;5075567;28;20011;-36
2021/09/01 00:41:48;;;;;;;;;;;;;;;16.48;72.72;102811.97;5075761;28;19908;-36
2021/09/01 00:44:16;;;;;;;;;;;;;;;16.47;72.41;102820.41;5075143;28;19912;-35
2021/09/01 00:46:41;;;;;;;;;;;;;;;16.45;72.74;102811.63;5076237;28;19909;-36
2021/09/01 00:49:07;;;;;;;;;;;;;;;16.46;72.52;102810.56;5075370;28;20381;-36
2021/09/01 00:51:32;;;;;;;;;;;;;;;16.45;72.74;102807.00;5075409;28;19931;-35
2021/09/01 00:53:57;;;;;;;;;;;;;;;16.47;72.96;102809.47;5075247;28;20268;-36
2021/09/01 00:56:23;;;;;;;;;;;;;;;16.45;72.91;102812.44;5075040;28;20352;-36
2021/09/01 00:58:49;;;;;;;;;;;;;;;16.45;72.90;102819.81;5075112;28;20349;-35
2021/09/01 01:01:16;;;;;;;;;;;;;;;16.44;72.89;102809.91;5075697;28;20004;-35
2021/09/01 01:03:42;;;;;;;;;;;;;;;16.44;72.89;102821.66;5075315;28;19908;-35
2021/09/01 01:06:07;;;;;;;;;;;;;;;16.43;73.01;102817.28;5075359;28;19908;-35
2021/09/01 01:08:33;;;;;;;;;;;;;;;16.43;73.09;102813.72;5075223;28;19989;-35
2021/09/01 01:10:59;;;;;;;;;;;;;;;16.42;73.13;102812.88;5075101;28;19912;-35
2021/09/01 01:13:27;;;;;;;;;;;;;;;16.39;73.14;102813.31;5074940;28;19912;-35
2021/09/01 01:15:54;;;;;;;;;;;;;;;16.39;73.22;102807.84;5075314;28;19964;-35
2021/09/01 01:18:19;;;;;;;;;;;;;;;16.38;72.76;102817.09;5074762;28;19915;-35
2021/09/01 01:20:48;;;;;;;;;;;;;;;16.37;72.97;102820.06;5073689;28;19909;-36
2021/09/01 01:23:13;;;;;;;;;;;;;;;16.35;73.04;102811.28;5074722;28;19981;-36
2021/09/01 01:25:39;;;;;;;;;;;;;;;16.35;72.91;102812.13;5075042;28;19908;-35
2021/09/01 01:28:05;;;;;;;;;;;;;;;16.36;73.35;102812.94;5074234;28;20038;-36
2021/09/01 01:30:31;;;;;;;;;;;;;;;16.35;73.11;102814.00;5074319;28;20391;-36
2021/09/01 01:32:56;;;;;;;;;;;;;;;16.35;73.14;102817.56;5074186;28;19909;-35
2021/09/01 01:35:29;;;;;;;;;;;;;;;16.37;73.30;102822.81;5074440;28;19995;-35
2021/09/01 01:37:55;;;;;;;;;;;;;;;16.32;73.21;102818.00;5074705;28;19916;-35
2021/09/01 01:40:20;;;;;;;;;;;;;;;16.29;73.46;102825.78;5073791;28;19909;-36
2021/09/01 01:42:45;;;;;;;;;;;;;;;16.27;73.50;102812.38;5075109;28;19999;-36
2021/09/01 01:45:11;;;;;;;;;;;;;;;16.29;73.26;102809.41;5074764;28;20325;-35
2021/09/01 01:47:37;;;;;;;;;;;;;;;16.28;73.69;102811.31;5074493;28;19908;-36
2021/09/01 01:50:02;;;;;;;;;;;;;;;16.29;73.81;102807.50;5074110;28;19954;-36
2021/09/01 01:52:28;;;;;;;;;;;;;;;16.28;73.74;102815.94;5074440;28;19935;-36
2021/09/01 01:54:53;;;;;;;;;;;;;;;16.26;73.63;102816.16;5073959;28;19965;-35
2021/09/01 01:57:19;;;;;;;;;;;;;;;16.26;73.42;102812.59;5074315;28;19908;-36
2021/09/01 01:59:44;;;;;;;;;;;;;;;16.27;73.62;102819.72;5074158;28;20424;-36
2021/09/01 02:02:09;;;;;;;;;;;;;;;16.26;73.63;102824.34;5073984;28;20011;-36
2021/09/01 02:04:35;;;;;;;;;;;;;;;16.23;74.04;102831.06;5073989;28;19959;-36
2021/09/01 02:07:00;;;;;;;;;;;;;;;16.22;74.02;102829.41;5073833;28;19955;-36
2021/09/01 02:09:25;;;;;;;;;;;;;;;16.23;74.20;102832.97;5073811;28;19908;-35
2021/09/01 02:11:51;;;;;;;;;;;;;;;16.20;73.68;102830.69;5074244;28;19974;-35
2021/09/01 02:14:16;;;;;;;;;;;;;;;16.17;74.13;102831.97;5073438;28;20379;-35
2021/09/01 02:16:41;;;;;;;;;;;;;;;16.18;74.03;102832.81;5073819;28;19909;-35
2021/09/01 02:19:07;;;;;;;;;;;;;;;16.18;73.80;102825.44;5073713;28;19908;-35
2021/09/01 02:21:32;;;;;;;;;;;;;;;16.19;73.86;102829.00;5073636;28;19934;-35
2021/09/01 02:23:57;;;;;;;;;;;;;;;16.19;73.87;102821.66;5073605;28;19909;-35
2021/09/01 02:26:22;;;;;;;;;;;;;;;16.21;73.96;102835.94;5073907;28;19974;-35
2021/09/01 02:28:48;;;;;;;;;;;;;;;16.21;73.79;102821.44;5074547;28;19916;-35
2021/09/01 02:31:13;;;;;;;;;;;;;;;16.19;74.22;102823.56;5073796;28;20366;-35
2021/09/01 02:33:38;;;;;;;;;;;;;;;16.19;74.42;102827.13;5073672;28;19908;-36
2021/09/01 02:36:03;;;;;;;;;;;;;;;16.19;74.02;102824.38;5073703;28;19912;-36
2021/09/01 02:38:29;;;;;;;;;;;;;;;16.18;73.96;102817.25;5073186;28;19963;-36
2021/09/01 02:40:54;;;;;;;;;;;;;;;16.19;74.06;102824.38;5073419;28;20376;-35
2021/09/01 02:43:19;;;;;;;;;;;;;;;16.19;74.58;102824.38;5073431;28;19908;-35
2021/09/01 02:45:44;;;;;;;;;;;;;;;16.18;74.54;102819.16;5073900;28;19916;-35
2021/09/01 02:48:09;;;;;;;;;;;;;;;16.16;74.59;102816.66;5073616;28;20321;-35
2021/09/01 02:50:35;;;;;;;;;;;;;;;16.14;74.16;102813.28;5072787;28;19919;-35
2021/09/01 02:53:00;;;;;;;;;;;;;;;16.12;75.07;102823.59;5072781;28;19915;-36
2021/09/01 02:55:25;;;;;;;;;;;;;;;16.08;74.76;102822.38;5073491;28;19908;-35
2021/09/01 02:57:50;;;;;;;;;;;;;;;16.08;74.68;102819.63;5074097;28;19912;-35
2021/09/01 03:00:15;;;;;;;;;;;;;;;16.07;74.77;102822.59;5073418;28;20260;-35
2021/09/01 03:02:41;;;;;;;;;;;;;;;16.06;75.11;102815.47;5073546;28;19962;-35
2021/09/01 03:05:06;;;;;;;;;;;;;;;16.05;74.88;102819.22;5074043;28;19912;-35
2021/09/01 03:07:32;;;;;;;;;;;;;;;16.04;74.75;102815.66;5073489;28;19948;-35
2021/09/01 03:09:57;;;;;;;;;;;;;;;16.05;74.91;102814.59;5073042;28;19909;-35
2021/09/01 03:12:22;;;;;;;;;;;;;;;16.04;75.07;102814.84;5073443;28;20387;-35
2021/09/01 03:14:48;;;;;;;;;;;;;;;16.04;74.96;102804.75;5072738;28;20203;-35
2021/09/01 03:17:13;;;;;;;;;;;;;;;16.05;74.93;102817.34;5073693;28;19919;-35
2021/09/01 03:19:38;;;;;;;;;;;;;;;16.05;74.71;102813.78;5073012;28;19953;-35
2021/09/01 03:22:03;;;;;;;;;;;;;;;16.05;74.78;102816.50;5073499;28;20057;-35
2021/09/01 03:24:28;;;;;;;;;;;;;;;16.06;74.77;102819.03;5073428;28;20318;-35
2021/09/01 03:26:54;;;;;;;;;;;;;;;16.05;75.15;102819.22;5073343;28;20303;-35
2021/09/01 03:29:19;;;;;;;;;;;;;;;16.04;74.79;102812.09;5073010;28;19914;-36
2021/09/01 03:31:44;;;;;;;;;;;;;;;16.03;74.71;102819.47;5073325;28;19908;-35
2021/09/01 03:34:09;;;;;;;;;;;;;;;16.03;74.93;102819.47;5073618;28;19999;-35
2021/09/01 03:36:35;;;;;;;;;;;;;;;16.04;75.26;102823.03;5073184;28;19908;-35
2021/09/01 03:39:00;;;;;;;;;;;;;;;16.03;75.46;102824.09;5073242;28;20259;-35
2021/09/01 03:41:25;;;;;;;;;;;;;;;16.03;74.93;102818.63;5073719;28;19908;-35
2021/09/01 03:43:50;;;;;;;;;;;;;;;16.04;75.34;102814.84;5072942;28;19908;-35
2021/09/01 03:46:15;;;;;;;;;;;;;;;16.03;75.43;102822.19;5072862;28;19916;-35
2021/09/01 03:48:41;;;;;;;;;;;;;;;16.03;75.17;102829.53;5073260;28;20007;-35
2021/09/01 03:51:06;;;;;;;;;;;;;;;16.02;75.14;102822.41;5072779;28;19919;-35
2021/09/01 03:53:31;;;;;;;;;;;;;;;16.03;74.90;102829.53;5072514;28;19916;-35
2021/09/01 03:55:56;;;;;;;;;;;;;;;16.02;75.27;102822.41;5073191;28;19909;-35
2021/09/01 03:58:22;;;;;;;;;;;;;;;16.02;75.04;102833.34;5072784;28;19908;-35
2021/09/01 04:00:47;;;;;;;;;;;;;;;16.02;75.33;102825.97;5073439;28;19916;-35
2021/09/01 04:03:12;;;;;;;;;;;;;;;16.01;75.30;102824.31;5074452;28;20365;-35
2021/09/01 04:05:37;;;;;;;;;;;;;;;16.01;75.50;102823.47;5076212;28;19908;-35
2021/09/01 04:08:02;;;;;;;;;;;;;;;16.02;75.40;102836.06;5075871;28;19919;-36
2021/09/01 04:10:28;;;;;;;;;;;;;;;16.01;75.03;102827.03;5076394;28;20221;-35
2021/09/01 04:12:53;;;;;;;;;;;;;;;15.99;75.17;102822.84;5076805;28;20308;-35
2021/09/01 04:15:18;;;;;;;;;;;;;;;15.98;75.31;102824.75;5076168;28;19998;-35
2021/09/01 04:17:44;;;;;;;;;;;;;;;15.97;74.96;102817.63;5076040;28;20027;-35
2021/09/01 04:20:09;;;;;;;;;;;;;;;15.97;75.41;102825.81;5075909;28;20356;-35
2021/09/01 04:22:35;;;;;;;;;;;;;;;15.95;75.46;102817.81;5075866;28;19915;-35
2021/09/01 04:25:00;;;;;;;;;;;;;;;15.93;75.56;102813.66;5075882;28;19909;-35
2021/09/01 04:27:25;;;;;;;;;;;;;;;15.93;75.28;102822.66;5076068;28;20003;-35
2021/09/01 04:29:51;;;;;;;;;;;;;;;15.92;75.35;102817.44;5075782;28;19909;-35
2021/09/01 04:32:16;;;;;;;;;;;;;;;15.91;75.84;102822.06;5075491;28;19908;-35
2021/09/01 04:34:41;;;;;;;;;;;;;;;15.88;75.82;102825.22;5075667;28;19909;-35
2021/09/01 04:37:06;;;;;;;;;;;;;;;15.87;75.83;102825.44;5075994;28;19909;-35
2021/09/01 04:39:32;;;;;;;;;;;;;;;15.88;75.69;102824.38;5075539;28;20372;-35
2021/09/01 04:41:57;;;;;;;;;;;;;;;15.88;75.52;102832.56;5075906;28;20286;-35
2021/09/01 04:44:22;;;;;;;;;;;;;;;15.87;76.48;102826.28;5075493;28;20402;-35
2021/09/01 04:46:47;;;;;;;;;;;;;;;15.84;76.18;102825.88;5075537;28;19908;-35
2021/09/01 04:49:12;;;;;;;;;;;;;;;15.82;76.12;102831.56;5075113;28;19934;-35
2021/09/01 04:51:38;;;;;;;;;;;;;;;15.82;76.09;102836.19;5075122;28;19909;-35
2021/09/01 04:54:03;;;;;;;;;;;;;;;15.82;76.08;102836.19;5075541;28;19950;-35
2021/09/01 04:56:28;;;;;;;;;;;;;;;15.83;76.50;102832.38;5075636;28;19918;-35
2021/09/01 04:58:53;;;;;;;;;;;;;;;15.83;76.86;102829.66;5075232;28;20382;-35
2021/09/01 05:01:19;;;;;;;;;;;;;;;15.81;76.44;102831.75;5075264;28;19951;-36
2021/09/01 05:03:44;;;;;;;;;;;;;;;15.81;76.44;102829.03;5075133;28;20007;-35
2021/09/01 05:06:10;;;;;;;;;;;;;;;15.81;76.76;102829.88;5075084;28;19908;-35
2021/09/01 05:08:35;;;;;;;;;;;;;;;15.80;76.60;102828.19;5075551;28;20000;-35
2021/09/01 05:11:00;;;;;;;;;;;;;;;15.79;76.63;102834.72;5075156;28;20335;-35
2021/09/01 05:13:25;;;;;;;;;;;;;;;15.79;76.78;102826.53;5074876;28;20283;-35
2021/09/01 05:15:50;;;;;;;;;;;;;;;15.81;76.86;102837.22;5073793;28;20275;-35
2021/09/01 05:18:16;;;;;;;;;;;;;;;15.83;76.67;102835.13;5075084;28;19908;-35
2021/09/01 05:20:41;;;;;;;;;;;;;;;15.83;76.83;102837.84;5075014;28;20356;-36
2021/09/01 05:23:07;;;;;;;;;;;;;;;15.83;77.17;102841.41;5074624;28;20247;-35
2021/09/01 05:25:41;;;;;;;;;;;;;;;15.86;77.06;102840.13;5075014;28;19915;-36
2021/09/01 05:28:06;;;;;;;;;;;;;;;15.86;77.08;102849.16;5074902;28;20304;-35
2021/09/01 05:30:32;;;;;;;;;;;;;;;15.87;77.26;102848.09;5075170;28;19915;-35
2021/09/01 05:33:00;;;;;;;;;;;;;;;15.89;77.29;102850.59;5075039;28;19995;-35
2021/09/01 05:35:25;;;;;;;;;;;;;;;15.92;77.07;102855.63;5074138;28;19959;-35
2021/09/01 05:37:51;;;;;;;;;;;;;;;15.91;77.30;102853.97;5074527;28;19952;-35
2021/09/01 05:40:16;;;;;;;;;;;;;;;15.91;77.33;102851.25;5074389;28;19947;-35
2021/09/01 05:42:41;;;;;;;;;;;;;;;15.93;77.43;102846.38;5074056;28;19909;-35
2021/09/01 05:45:07;;;;;;;;;;;;;;;15.94;77.33;102856.25;5073947;28;19908;-35
2021/09/01 05:47:33;;;;;;;;;;;;;;;15.93;78.33;102852.69;5074276;28;19920;-35
2021/09/01 05:49:58;;;;;;;;;;;;;;;15.93;77.41;102846.38;5074493;28;19969;-35
2021/09/01 05:52:24;;;;;;;;;;;;;;;15.94;77.57;102857.06;5074216;28;20298;-36
2021/09/01 05:54:50;;;;;;;;;;;;;;;15.97;77.69;102847.63;5073767;28;19909;-35
2021/09/01 05:57:17;;;;;;;;;;;;;;;15.98;77.25;102846.56;5074531;28;19908;-36
2021/09/01 05:59:46;;;;;;;;;;;;;;;16.00;77.49;102839.00;5074067;28;19908;-35
2021/09/01 06:02:18;;;;;;;;;;;;;;;16.01;77.55;102851.59;5073999;28;19908;-36
2021/09/01 06:04:45;;;;;;;;;;;;;;;16.05;77.61;102843.78;5073908;28;19966;-35
2021/09/01 06:07:12;;;;;;;;;;;;;;;16.05;77.66;102846.53;5073977;28;19909;-35
2021/09/01 06:09:39;;;;;;;;;;;;;;;16.05;77.23;102846.53;5073533;28;20335;-35
2021/09/01 06:12:05;;;;;;;;;;;;;;;16.06;77.19;102848.22;5073711;28;20364;-35
2021/09/01 06:14:30;;;;;;;;;;;;;;;16.03;77.17;102840.47;5073767;28;19909;-36
2021/09/01 06:16:56;;;;;;;;;;;;;;;16.09;77.36;102856.78;5073092;28;20285;-35
2021/09/01 06:19:21;;;;;;;;;;;;;;;16.11;76.93;102853.84;5073678;28;19915;-35
2021/09/01 06:21:46;;;;;;;;;;;;;;;16.11;77.07;102854.69;5073063;28;19998;-35
2021/09/01 06:24:12;;;;;;;;;;;;;;;16.15;77.25;102864.13;5073654;28;19909;-36
2021/09/01 06:26:37;;;;;;;;;;;;;;;16.16;76.96;102854.03;5072624;28;20345;-36
2021/09/01 06:29:02;;;;;;;;;;;;;;;16.18;77.26;102855.47;5073593;28;19908;-35
2021/09/01 06:31:34;;;;;;;;;;;;;;;16.21;76.72;102856.94;5074284;28;19909;-35
2021/09/01 06:33:59;;;;;;;;;;;;;;;16.22;77.15;102851.25;5073535;28;19915;-35
2021/09/01 06:36:25;;;;;;;;;;;;;;;16.23;76.79;102849.34;5073684;28;19908;-35
2021/09/01 06:38:50;;;;;;;;;;;;;;;16.25;77.33;102851.84;5073682;28;19909;-35
2021/09/01 06:41:15;;;;;;;;;;;;;;;16.22;77.63;102861.34;5073517;28;19966;-35
2021/09/01 06:43:40;;;;;;;;;;;;;;;16.22;77.55;102862.16;5073434;28;19955;-35
2021/09/01 06:46:05;;;;;;;;;;;;;;;16.25;77.40;102868.22;5073990;28;19954;-36
2021/09/01 06:48:31;;;;;;;;;;;;;;;16.23;77.88;102863.84;5073850;28;19909;-35
2021/09/01 06:50:56;;;;;;;;;;;;;;;16.21;77.85;102860.50;5073678;28;20382;-35
2021/09/01 06:53:21;;;;;;;;;;;;;;;16.20;77.71;102869.75;5072975;28;19908;-35
2021/09/01 06:55:46;;;;;;;;;;;;;;;16.22;77.64;102866.78;5073442;28;19991;-35
2021/09/01 06:58:19;;;;;;;;;;;;;;;16.23;77.72;102872.03;5073249;28;20316;-35
2021/09/01 07:00:44;;;;;;;;;;;;;;;16.26;77.40;102864.47;5073261;28;20451;-35
2021/09/01 07:03:10;;;;;;;;;;;;;;;16.27;77.58;102868.88;5073439;28;20007;-35
2021/09/01 07:05:35;;;;;;;;;;;;;;;16.28;77.55;102867.81;5073959;28;19909;-35
2021/09/01 07:08:09;;;;;;;;;;;;;;;16.22;76.78;102870.34;5073090;28;19995;-35
2021/09/01 07:10:34;;;;;;;;;;;;;;;16.23;76.76;102879.38;5073194;28;20007;-36
2021/09/01 07:12:59;;;;;;;;;;;;;;;16.25;77.31;102876.41;5073156;28;20025;-35
2021/09/01 07:15:25;;;;;;;;;;;;;;;16.30;77.14;102871.13;5073592;28;19908;-35
2021/09/01 07:17:50;;;;;;;;;;;;;;;16.32;76.75;102878.06;5073572;28;19915;-36
2021/09/01 07:20:15;;;;;;;;;;;;;;;16.35;76.67;102876.81;5072738;28;19966;-36
2021/09/01 07:22:40;;;;;;;;;;;;;;;16.35;76.31;102877.63;5073026;28;19912;-35
2021/09/01 07:25:07;;;;;;;;;;;;;;;16.37;76.76;102880.97;5072994;28;19956;-35
2021/09/01 07:27:32;;;;;;;;;;;;;;;16.39;76.73;102878.84;5073251;28;19936;-35
2021/09/01 07:29:58;;;;;;;;;;;;;;;16.40;75.89;102882.44;5072702;28;19915;-36
2021/09/01 07:32:23;;;;;;;;;;;;;;;16.40;76.63;102883.28;5072755;28;20046;-35
2021/09/01 07:34:48;;;;;;;;;;;;;;;16.41;76.64;102884.94;5073018;28;19908;-35
2021/09/01 07:37:14;;;;;;;;;;;;;;;16.43;76.54;102887.44;5073086;28;19908;-35
2021/09/01 07:39:39;;;;;;;;;;;;;;;16.46;76.44;102889.75;5076516;28;19912;-36
2021/09/01 07:42:04;;;;;;;;;;;;;;;16.47;75.70;102894.97;5077573;28;19931;-35
2021/09/01 07:44:29;;;;;;;;;;;;;;;16.42;75.45;102893.97;5076650;28;20272;-35
2021/09/01 07:46:54;;;;;;;;;;;;;;;16.40;75.91;102893.34;5077200;28;19998;-35
2021/09/01 07:49:20;;;;;;;;;;;;;;;16.40;75.89;102907.84;5076891;28;19909;-35
2021/09/01 07:51:47;;;;;;;;;;;;;;;16.41;76.32;102904.06;5076229;28;19908;-35
2021/09/01 07:54:12;;;;;;;;;;;;;;;16.44;75.71;102909.06;5076342;28;19908;-36
2021/09/01 07:56:37;;;;;;;;;;;;;;;16.47;75.16;102914.09;5076481;28;20050;-36
2021/09/01 07:59:03;;;;;;;;;;;;;;;16.49;75.36;102913.84;5075624;28;19919;-36
2021/09/01 08:01:28;;;;;;;;;;;;;;;16.56;75.55;102916.56;5076713;28;19912;-36
2021/09/01 08:03:53;;;;;;;;;;;;;;;16.60;75.42;102918.63;5076342;28;20395;-36
2021/09/01 08:06:18;;;;;;;;;;;;;;;16.64;75.10;102925.34;5076252;28;20007;-35
2021/09/01 08:08:44;;;;;;;;;;;;;;;16.67;75.38;102919.41;5075935;28;19908;-35
2021/09/01 08:11:09;;;;;;;;;;;;;;;16.73;75.16;102923.19;5075905;28;20302;-35
2021/09/01 08:13:34;;;;;;;;;;;;;;;16.78;75.07;102925.25;5076113;28;19970;-35
2021/09/01 08:15:59;;;;;;;;;;;;;;;16.80;75.06;102929.44;5076293;28;20340;-36
2021/09/01 08:18:24;;;;;;;;;;;;;;;16.84;74.89;102925.22;5076053;28;19958;-36
2021/09/01 08:20:50;;;;;;;;;;;;;;;16.79;74.02;102929.66;5076006;28;19962;-35
2021/09/01 08:23:15;;;;;;;;;;;;;;;16.75;74.08;102931.16;5076018;28;19909;-36
2021/09/01 08:25:40;;;;;;;;;;;;;;;16.79;74.71;102937.84;5076540;28;20249;-35
2021/09/01 08:28:05;;;;;;;;;;;;;;;16.79;74.19;102937.84;5076005;28;19995;-35
2021/09/01 08:30:31;;;;;;;;;;;;;;;16.80;73.63;102931.34;5075957;28;19908;-36
2021/09/01 08:32:56;;;;;;;;;;;;;;;16.82;74.55;102935.50;5075595;28;19927;-36
2021/09/01 08:35:21;;;;;;;;;;;;;;;16.90;75.03;102928.94;5076623;28;19909;-36
2021/09/01 08:37:50;;;;;;;;;;;;;;;16.96;74.59;102941.72;5076124;28;20251;-35
2021/09/01 08:40:15;;;;;;;;;;;;;;;17.02;74.69;102937.25;5075736;28;19919;-36
2021/09/01 08:42:41;;;;;;;;;;;;;;;17.08;73.97;102945.41;5075754;28;19908;-35
2021/09/01 08:45:07;;;;;;;;;;;;;;;17.13;74.02;102945.56;5076179;28;19931;-35
2021/09/01 08:47:32;;;;;;;;;;;;;;;17.17;73.85;102940.47;5076104;28;19908;-35
2021/09/01 08:49:58;;;;;;;;;;;;;;;17.21;73.94;102941.69;5075771;28;19962;-35
2021/09/01 08:52:23;;;;;;;;;;;;;;;17.27;73.08;102939.97;5075648;28;20267;-35
2021/09/01 08:54:49;;;;;;;;;;;;;;;17.31;73.42;102941.19;5075417;28;19908;-35
2021/09/01 08:57:14;;;;;;;;;;;;;;;17.31;69.52;102936.53;5075895;28;19915;-36
2021/09/01 08:59:39;;;;;;;;;;;;;;;17.28;70.93;102930.72;5075581;28;19961;-35
2021/09/01 09:02:04;;;;;;;;;;;;;;;17.31;72.09;102932.97;5075589;28;19908;-35
2021/09/01 09:04:34;;;;;;;;;;;;;;;17.39;72.56;102943.63;5075185;28;19966;-36
2021/09/01 09:07:03;;;;;;;;;;;;;;;17.45;72.50;102945.47;5075992;28;20229;-36
2021/09/01 09:09:36;;;;;;;;;;;;;;;17.36;71.52;102939.44;5075168;28;19909;-35
2021/09/01 09:12:02;;;;;;;;;;;;;;;17.37;71.74;102943.00;5076191;28;19913;-36
2021/09/01 09:14:27;;;;;;;;;;;;;;;17.38;72.39;102941.97;5074977;28;19914;-36
2021/09/01 09:16:59;;;;;;;;;;;;;;;17.36;71.36;102938.59;5075049;28;20360;-35
2021/09/01 09:19:40;;;;;;;;;;;;;;;17.33;71.42;102939.91;5074931;28;19955;-35
2021/09/01 09:22:05;;;;;;;;;;;;;;;17.29;71.70;102938.69;5075517;28;19915;-36
2021/09/01 09:24:33;;;;;;;;;;;;;;;17.22;72.08;102933.25;5074917;28;19908;-35
2021/09/01 09:26:58;;;;;;;;;;;;;;;17.20;72.21;102940.88;5075034;28;19913;-36
2021/09/01 09:29:23;;;;;;;;;;;;;;;17.20;72.08;102938.13;5074805;28;19914;-36
2021/09/01 09:32:06;;;;;;;;;;;;;;;17.20;71.48;102942.75;5074995;28;19908;-35
2021/09/01 09:34:37;;;;;;;;;;;;;;;17.21;72.30;102934.31;5074531;28;19908;-35
2021/09/01 09:37:09;;;;;;;;;;;;;;;17.25;71.90;102941.03;5074539;28;20404;-36
2021/09/01 09:39:43;;;;;;;;;;;;;;;17.28;72.15;102934.28;5074533;28;19946;-36
2021/09/01 09:42:12;;;;;;;;;;;;;;;17.35;72.41;102940.50;5075267;28;19972;-36
2021/09/01 09:44:37;;;;;;;;;;;;;;;17.41;72.37;102944.25;5074343;28;19994;-36
2021/09/01 09:47:03;;;;;;;;;;;;;;;17.49;70.45;102938.47;5074432;28;19954;-35
2021/09/01 09:49:29;;;;;;;;;;;;;;;17.56;71.59;102944.69;5074052;28;20011;-36
2021/09/01 09:51:55;;;;;;;;;;;;;;;17.63;70.84;102940.00;5074011;28;19916;-36
2021/09/01 09:54:22;;;;;;;;;;;;;;;17.77;71.37;102939.91;5074631;28;19910;-35
2021/09/01 09:56:47;;;;;;;;;;;;;;;17.79;68.56;102940.50;5073948;28;19908;-36
2021/09/01 09:59:14;;;;;;;;;;;;;;;17.86;70.20;102938.50;5074079;28;19916;-35
2021/09/01 10:01:39;;;;;;;;;;;;;;;17.93;70.57;102937.38;5074427;28;19908;-36
2021/09/01 10:04:04;;;;;;;;;;;;;;;18.03;70.78;102939.56;5074022;28;19908;-36
2021/09/01 10:06:30;;;;;;;;;;;;;;;18.07;68.75;102940.78;5073758;28;20360;-35
2021/09/01 10:08:55;;;;;;;;;;;;;;;18.16;69.66;102935.84;5073957;28;19916;-35
2021/09/01 10:11:21;;;;;;;;;;;;;;;18.31;69.77;102936.25;5074361;28;20226;-36
2021/09/01 10:13:50;;;;;;;;;;;;;;;18.43;68.83;102928.91;5074353;28;19914;-35
2021/09/01 10:16:21;;;;;;;;;;;;;;;18.51;69.14;102927.75;5073665;28;19909;-36
2021/09/01 10:18:47;;;;;;;;;;;;;;;18.57;67.89;102928.69;5073803;28;19912;-36
2021/09/01 10:21:13;;;;;;;;;;;;;;;18.52;67.32;102932.16;5074361;28;19947;-36
2021/09/01 10:23:40;;;;;;;;;;;;;;;18.57;67.45;102924.06;5074251;28;20355;-36
2021/09/01 10:26:24;;;;;;;;;;;;;;;18.66;68.61;102927.31;5072153;28;20272;-36
2021/09/01 10:28:49;;;;;;;;;;;;;;;18.70;67.88;102914.84;5072372;28;20324;-36
2021/09/01 10:31:17;;;;;;;;;;;;;;;18.69;65.77;102919.50;5073697;28;19946;-36
2021/09/01 10:33:45;;;;;;;;;;;;;;;18.65;66.93;102921.00;5074049;28;19944;-36
2021/09/01 10:36:26;;;;;;;;;;;;;;;18.62;65.78;102921.44;5074296;28;19914;-36
2021/09/01 10:38:52;;;;;;;;;;;;;;;18.59;67.90;102921.06;5073593;28;19908;-35
2021/09/01 10:41:28;;;;;;;;;;;;;;;18.54;67.66;102919.03;5073575;28;19951;-36
2021/09/01 10:43:54;;;;;;;;;;;;;;;18.50;68.09;102910.47;5073480;28;20253;-36
2021/09/01 10:46:19;;;;;;;;;;;;;;;18.51;67.23;102914.03;5073980;28;19909;-36
2021/09/01 10:48:54;;;;;;;;;;;;;;;18.46;64.53;102905.69;5073093;28;20337;-36
2021/09/01 10:51:29;;;;;;;;;;;;;;;18.50;67.34;102910.47;5074840;28;19915;-36
2021/09/01 10:53:54;;;;;;;;;;;;;;;18.56;66.95;102905.94;5073404;28;19908;-36
2021/09/01 10:56:20;;;;;;;;;;;;;;;18.59;66.96;102893.69;5074030;28;19915;-36
2021/09/01 10:58:45;;;;;;;;;;;;;;;18.65;66.61;102899.06;5073346;28;19919;-36
2021/09/01 11:01:13;;;;;;;;;;;;;;;18.69;66.01;102899.44;5073624;28;19961;-36
2021/09/01 11:03:49;;;;;;;;;;;;;;;18.76;66.46;102894.69;5073229;28;19931;-36
2021/09/01 11:06:15;;;;;;;;;;;;;;;18.80;65.42;102897.81;5074068;28;20020;-36
2021/09/01 11:09:04;;;;;;;;;;;;;;;18.81;65.01;102894.81;5073293;28;19908;-36
2021/09/01 11:11:43;;;;;;;;;;;;;;;18.86;64.90;102894.13;5011195;28;19971;-35
2021/09/01 11:14:09;;;;;;;;;;;;;;;18.83;63.93;102894.59;5014656;28;20342;-36
2021/09/01 11:16:34;;;;;;;;;;;;;;;18.90;65.65;102895.31;5015285;28;19910;-36
2021/09/01 11:19:00;;;;;;;;;;;;;;;18.94;63.41;102894.59;5015104;28;19916;-36
2021/09/01 11:21:26;;;;;;;;;;;;;;;18.94;64.46;102902.84;5015320;28;20003;-36
2021/09/01 11:23:51;;;;;;;;;;;;;;;18.98;65.83;102893.06;5015286;28;20035;-36
2021/09/01 11:26:17;;;;;;;;;;;;;;;18.97;63.29;102896.03;5015057;28;19909;-36
2021/09/01 11:28:42;;;;;;;;;;;;;;;18.97;63.88;102902.34;5015013;28;19909;-36
2021/09/01 11:31:20;;;;;;;;;;;;;;;18.97;65.21;102901.50;5014891;28;19910;-36
2021/09/01 11:33:45;;;;;;;;;;;;;;;18.97;64.19;102905.06;5014849;28;19910;-35
2021/09/01 11:36:10;;;;;;;;;;;;;;;18.99;63.81;102902.13;5014815;28;19920;-36
2021/09/01 11:38:45;;;;;;;;;;;;;;;19.01;63.49;102905.44;5015306;28;19909;-36
2021/09/01 11:41:11;;;;;;;;;;;;;;;18.98;62.34;102905.91;5014695;28;19909;-36
2021/09/01 11:43:36;;;;;;;;;;;;;;;19.02;62.98;102901.63;5015032;28;19916;-36
2021/09/01 11:46:01;;;;;;;;;;;;;;;19.02;62.17;102899.72;5015229;28;19940;-35
2021/09/01 11:48:37;;;;;;;;;;;;;;;19.07;63.81;102907.22;5045840;28;20075;-36
2021/09/01 11:51:02;;;;;;;;;;;;;;;19.10;61.59;102901.28;5076939;28;19908;-36
2021/09/01 11:53:27;;;;;;;;;;;;;;;19.14;62.20;102904.38;5076544;28;19954;-36
2021/09/01 11:55:53;;;;;;;;;;;;;;;19.17;62.79;102904.72;5076792;28;19916;-36
2021/09/01 11:58:19;;;;;;;;;;;;;;;19.25;63.79;102903.53;5076147;28;20249;-36
2021/09/01 12:00:45;;;;;;;;;;;;;;;19.26;62.85;102906.03;5076361;28;19909;-36
2021/09/01 12:03:11;;;;;;;;;;;;;;;19.22;62.69;102907.59;5076655;28;19915;-36
2021/09/01 12:05:37;;;;;;;;;;;;;;;19.18;62.00;102909.16;5076670;28;19944;-36
2021/09/01 12:08:02;;;;;;;;;;;;;;;19.08;61.53;102911.66;5076311;28;19970;-36
2021/09/01 12:10:30;;;;;;;;;;;;;;;19.06;63.40;102911.06;5076896;28;19912;-36
2021/09/01 12:13:04;;;;;;;;;;;;;;;19.01;62.70;102909.03;5075333;28;19909;-36
2021/09/01 12:15:29;;;;;;;;;;;;;;;18.95;62.73;102909.16;5074959;28;19912;-36
2021/09/01 12:18:00;;;;;;;;;;;;;;;18.93;63.22;102906.63;5075031;28;19915;-36
2021/09/01 12:20:26;;;;;;;;;;;;;;;18.94;62.84;102908.31;5074622;28;19908;-36
2021/09/01 12:22:51;;;;;;;;;;;;;;;18.94;62.66;102902.84;5075236;28;19962;-36
2021/09/01 12:25:19;;;;;;;;;;;;;;;18.97;62.73;102902.34;5074801;28;19969;-36
2021/09/01 12:27:57;;;;;;;;;;;;;;;18.97;63.18;102910.56;5075376;28;19908;-36
2021/09/01 12:30:24;;;;;;;;;;;;;;;19.03;63.89;102900.53;5074694;28;19908;-36